Terminal Aerodrome Forecast
Issued by NWS

Home | Current Version | Previous Version | Text Only | Print | Product List | Glossary On
Versions: 1 2 3 4 5 6 7 8 9 10 11 12 13 14
000
FTUS46 KPDT 302320
TAFALW
TAF
KALW 302320Z 0100/0124 29008KT P6SM SCT100 BKN250
     FM010200 22010KT P6SM BKN100 BKN250
     FM010800 20011KT P6SM SCT070 BKN100
     FM011200 18008KT P6SM SCT070 BKN100
     FM011800 25010KT P6SM BKN070 BKN250=

USA.gov is the U.S. government's official web portal to all federal, state and local government web resources and services.